sensor_id;sensor_type;location;lat;lon;timestamp;pressure;altitude;pressure_sealevel;temperature;humidity
13387;BME280;6763;48.524;9.044;2023-04-07T00:00:11;97799.38;;;11.49;50.33
13387;BME280;6763;48.524;9.044;2023-04-07T00:02:36;97794.22;;;11.49;50.47
13387;BME280;6763;48.524;9.044;2023-04-07T00:05:02;97800.25;;;11.48;50.31
13387;BME280;6763;48.524;9.044;2023-04-07T00:07:27;97796.78;;;11.49;50.56
13387;BME280;6763;48.524;9.044;2023-04-07T00:09:52;97792.53;;;11.46;50.54
13387;BME280;6763;48.524;9.044;2023-04-07T00:12:18;97794.28;;;11.46;50.79
13387;BME280;6763;48.524;9.044;2023-04-07T00:14:43;97793.47;;;11.44;50.60
13387;BME280;6763;48.524;9.044;2023-04-07T00:17:08;97792.59;;;11.43;50.73
13387;BME280;6763;48.524;9.044;2023-04-07T00:19:34;97787.44;;;11.42;51.14
13387;BME280;6763;48.524;9.044;2023-04-07T00:21:59;97790.88;;;11.42;50.79
13387;BME280;6763;48.524;9.044;2023-04-07T00:24:25;97782.25;;;11.42;50.77
13387;BME280;6763;48.524;9.044;2023-04-07T00:26:51;97783.09;;;11.44;50.70
13387;BME280;6763;48.524;9.044;2023-04-07T00:29:16;97770.13;;;11.44;50.56
13387;BME280;6763;48.524;9.044;2023-04-07T00:31:42;97771.81;;;11.45;50.59
13387;BME280;6763;48.524;9.044;2023-04-07T00:34:07;97764.03;;;11.45;50.50
13387;BME280;6763;48.524;9.044;2023-04-07T00:36:32;97758.00;;;11.44;50.55
13387;BME280;6763;48.524;9.044;2023-04-07T00:38:58;97762.31;;;11.45;50.79
13387;BME280;6763;48.524;9.044;2023-04-07T00:41:23;97751.94;;;11.45;50.55
13387;BME280;6763;48.524;9.044;2023-04-07T00:43:50;97753.66;;;11.46;51.05
13387;BME280;6763;48.524;9.044;2023-04-07T00:46:16;97751.88;;;11.48;51.01
13387;BME280;6763;48.524;9.044;2023-04-07T00:48:42;97752.75;;;11.49;51.61
13387;BME280;6763;48.524;9.044;2023-04-07T00:51:07;97746.69;;;11.48;51.98
13387;BME280;6763;48.524;9.044;2023-04-07T00:53:33;97741.47;;;11.50;52.29
13387;BME280;6763;48.524;9.044;2023-04-07T00:55:58;97743.19;;;11.49;52.92
13387;BME280;6763;48.524;9.044;2023-04-07T00:58:24;97732.88;;;11.48;53.05
13387;BME280;6763;48.524;9.044;2023-04-07T01:03:34;97732.06;;;11.46;52.27
13387;BME280;6763;48.524;9.044;2023-04-07T01:06:04;97727.75;;;11.45;52.59
13387;BME280;6763;48.524;9.044;2023-04-07T01:09:02;97719.19;;;11.43;52.96
13387;BME280;6763;48.524;9.044;2023-04-07T01:14:14;97715.72;;;11.42;52.93
13387;BME280;6763;48.524;9.044;2023-04-07T01:16:45;97714.00;;;11.43;53.58
13387;BME280;6763;48.524;9.044;2023-04-07T01:21:57;97711.47;;;11.40;53.51
13387;BME280;6763;48.524;9.044;2023-04-07T01:24:37;97708.00;;;11.39;53.93
13387;BME280;6763;48.524;9.044;2023-04-07T01:27:18;97705.47;;;11.38;53.46
13387;BME280;6763;48.524;9.044;2023-04-07T01:29:46;97706.28;;;11.40;53.38
13387;BME280;6763;48.524;9.044;2023-04-07T01:32:17;97707.13;;;11.40;53.83
13387;BME280;6763;48.524;9.044;2023-04-07T01:34:47;97703.75;;;11.38;53.29
13387;BME280;6763;48.524;9.044;2023-04-07T01:37:15;97706.34;;;11.37;53.63
13387;BME280;6763;48.524;9.044;2023-04-07T01:39:41;97700.28;;;11.38;53.70
13387;BME280;6763;48.524;9.044;2023-04-07T01:42:07;97697.69;;;11.38;54.13
13387;BME280;6763;48.524;9.044;2023-04-07T01:44:33;97692.53;;;11.36;53.90
13387;BME280;6763;48.524;9.044;2023-04-07T01:47:00;97697.69;;;11.38;54.12
13387;BME280;6763;48.524;9.044;2023-04-07T01:49:27;97695.13;;;11.36;54.23
13387;BME280;6763;48.524;9.044;2023-04-07T01:51:54;97690.88;;;11.34;54.26
13387;BME280;6763;48.524;9.044;2023-04-07T01:54:21;97690.03;;;11.33;54.58
13387;BME280;6763;48.524;9.044;2023-04-07T01:56:47;97686.59;;;11.31;54.43
13387;BME280;6763;48.524;9.044;2023-04-07T01:59:12;97693.56;;;11.29;54.45
13387;BME280;6763;48.524;9.044;2023-04-07T02:01:38;97691.88;;;11.28;54.81
13387;BME280;6763;48.524;9.044;2023-04-07T02:04:13;97694.47;;;11.28;54.76
13387;BME280;6763;48.524;9.044;2023-04-07T02:06:52;97687.53;;;11.29;54.47
13387;BME280;6763;48.524;9.044;2023-04-07T02:09:20;97691.78;;;11.31;54.71
13387;BME280;6763;48.524;9.044;2023-04-07T02:11:47;97680.50;;;11.34;54.24
13387;BME280;6763;48.524;9.044;2023-04-07T02:14:13;97681.34;;;11.36;54.32
13387;BME280;6763;48.524;9.044;2023-04-07T02:16:42;97676.16;;;11.36;54.17
13387;BME280;6763;48.524;9.044;2023-04-07T02:19:07;97685.59;;;11.38;54.15
13387;BME280;6763;48.524;9.044;2023-04-07T02:21:34;97673.47;;;11.39;54.51
13387;BME280;6763;48.524;9.044;2023-04-07T02:24:01;97673.53;;;11.37;54.81
13387;BME280;6763;48.524;9.044;2023-04-07T02:26:33;97675.25;;;11.37;54.85
13387;BME280;6763;48.524;9.044;2023-04-07T02:28:59;97666.66;;;11.35;54.38
13387;BME280;6763;48.524;9.044;2023-04-07T02:31:24;97680.50;;;11.35;54.50
13387;BME280;6763;48.524;9.044;2023-04-07T02:33:49;97665.78;;;11.36;54.32
13387;BME280;6763;48.524;9.044;2023-04-07T02:36:15;97660.56;;;11.37;54.42
13387;BME280;6763;48.524;9.044;2023-04-07T02:38:40;97669.16;;;11.39;54.46
13387;BME280;6763;48.524;9.044;2023-04-07T02:41:05;97668.22;;;11.42;54.14
13387;BME280;6763;48.524;9.044;2023-04-07T02:43:31;97665.63;;;11.42;54.07
13387;BME280;6763;48.524;9.044;2023-04-07T02:45:56;97663.09;;;11.39;54.21
13387;BME280;6763;48.524;9.044;2023-04-07T02:48:22;97659.69;;;11.38;54.32
13387;BME280;6763;48.524;9.044;2023-04-07T02:50:47;97661.41;;;11.38;54.26
13387;BME280;6763;48.524;9.044;2023-04-07T02:53:12;97651.94;;;11.37;54.29
13387;BME280;6763;48.524;9.044;2023-04-07T02:55:38;97651.06;;;11.36;54.78
13387;BME280;6763;48.524;9.044;2023-04-07T02:58:03;97644.28;;;11.32;54.21
13387;BME280;6763;48.524;9.044;2023-04-07T03:00:29;97645.13;;;11.33;54.58
13387;BME280;6763;48.524;9.044;2023-04-07T03:02:54;97649.50;;;11.31;54.65
13387;BME280;6763;48.524;9.044;2023-04-07T03:05:19;97652.97;;;11.30;54.79
13387;BME280;6763;48.524;9.044;2023-04-07T03:07:45;97649.47;;;11.32;55.02
13387;BME280;6763;48.524;9.044;2023-04-07T03:10:10;97643.41;;;11.32;54.76
13387;BME280;6763;48.524;9.044;2023-04-07T03:12:35;97641.69;;;11.32;54.93
13387;BME280;6763;48.524;9.044;2023-04-07T03:15:01;97634.84;;;11.30;54.80
13387;BME280;6763;48.524;9.044;2023-04-07T03:17:26;97632.19;;;11.31;54.72
13387;BME280;6763;48.524;9.044;2023-04-07T03:19:51;97634.78;;;11.31;54.99
13387;BME280;6763;48.524;9.044;2023-04-07T03:22:17;97626.19;;;11.31;54.71
13387;BME280;6763;48.524;9.044;2023-04-07T03:24:42;97622.81;;;11.27;54.58
13387;BME280;6763;48.524;9.044;2023-04-07T03:27:07;97623.66;;;11.28;54.55
13387;BME280;6763;48.524;9.044;2023-04-07T03:29:33;97632.31;;;11.28;54.83
13387;BME280;6763;48.524;9.044;2023-04-07T03:31:58;97626.28;;;11.26;54.68
13387;BME280;6763;48.524;9.044;2023-04-07T03:34:23;97623.69;;;11.26;54.82
13387;BME280;6763;48.524;9.044;2023-04-07T03:36:49;97622.88;;;11.26;54.77
13387;BME280;6763;48.524;9.044;2023-04-07T03:39:15;97625.44;;;11.26;54.75
13387;BME280;6763;48.524;9.044;2023-04-07T03:41:40;97622.88;;;11.24;55.07
13387;BME280;6763;48.524;9.044;2023-04-07T03:44:06;97629.84;;;11.22;54.92
13387;BME280;6763;48.524;9.044;2023-04-07T03:46:31;97626.41;;;11.21;55.06
13387;BME280;6763;48.524;9.044;2023-04-07T03:48:56;97620.34;;;11.23;54.84
13387;BME280;6763;48.524;9.044;2023-04-07T03:51:22;97622.88;;;11.24;55.19
13387;BME280;6763;48.524;9.044;2023-04-07T03:53:47;97615.16;;;11.23;54.84
13387;BME280;6763;48.524;9.044;2023-04-07T03:56:12;97613.44;;;11.23;54.99
13387;BME280;6763;48.524;9.044;2023-04-07T03:58:38;97616.84;;;11.23;54.81
13387;BME280;6763;48.524;9.044;2023-04-07T04:01:06;97611.72;;;11.20;54.88
13387;BME280;6763;48.524;9.044;2023-04-07T04:03:32;97603.94;;;11.22;54.75
13387;BME280;6763;48.524;9.044;2023-04-07T04:05:57;97603.13;;;11.20;54.63
13387;BME280;6763;48.524;9.044;2023-04-07T04:08:22;97599.69;;;11.19;54.79
13387;BME280;6763;48.524;9.044;2023-04-07T04:10:48;97595.38;;;11.18;54.75
13387;BME280;6763;48.524;9.044;2023-04-07T04:13:13;97597.09;;;11.18;54.67
13387;BME280;6763;48.524;9.044;2023-04-07T04:15:38;97592.84;;;11.17;54.99
13387;BME280;6763;48.524;9.044;2023-04-07T04:18:04;97594.63;;;11.15;54.51
13387;BME280;6763;48.524;9.044;2023-04-07T04:20:29;97592.91;;;11.14;54.84
13387;BME280;6763;48.524;9.044;2023-04-07T04:22:55;97586.00;;;11.13;54.49
13387;BME280;6763;48.524;9.044;2023-04-07T04:25:20;97583.41;;;11.13;54.66
13387;BME280;6763;48.524;9.044;2023-04-07T04:27:45;97588.59;;;11.13;54.92
13387;BME280;6763;48.524;9.044;2023-04-07T04:30:11;97594.63;;;11.13;54.83
13387;BME280;6763;48.524;9.044;2023-04-07T04:32:36;97589.50;;;11.12;54.73
13387;BME280;6763;48.524;9.044;2023-04-07T04:35:01;97593.75;;;11.14;55.00
13387;BME280;6763;48.524;9.044;2023-04-07T04:37:27;97596.34;;;11.14;55.23
13387;BME280;6763;48.524;9.044;2023-04-07T04:39:52;97594.63;;;11.13;55.16
13387;BME280;6763;48.524;9.044;2023-04-07T04:42:17;97589.50;;;11.12;55.26
13387;BME280;6763;48.524;9.044;2023-04-07T04:44:43;97588.66;;;11.11;54.79
13387;BME280;6763;48.524;9.044;2023-04-07T04:47:08;97598.16;;;11.11;54.87
13387;BME280;6763;48.524;9.044;2023-04-07T04:49:33;97592.13;;;11.10;55.06
13387;BME280;6763;48.524;9.044;2023-04-07T04:51:59;97586.13;;;11.08;55.18
13387;BME280;6763;48.524;9.044;2023-04-07T04:54:24;97586.19;;;11.05;55.46
13387;BME280;6763;48.524;9.044;2023-04-07T04:56:49;97595.75;;;11.03;55.49
13387;BME280;6763;48.524;9.044;2023-04-07T04:59:15;97593.22;;;11.02;55.55
13387;BME280;6763;48.524;9.044;2023-04-07T05:01:40;97596.72;;;10.99;55.46
13387;BME280;6763;48.524;9.044;2023-04-07T05:04:06;97598.44;;;10.99;55.67
13387;BME280;6763;48.524;9.044;2023-04-07T05:06:33;97601.91;;;10.98;55.66
13387;BME280;6763;48.524;9.044;2023-04-07T05:08:58;97597.66;;;10.95;55.20
13387;BME280;6763;48.524;9.044;2023-04-07T05:11:23;97596.84;;;10.93;55.33
13387;BME280;6763;48.524;9.044;2023-04-07T05:13:49;97601.22;;;10.91;55.36
13387;BME280;6763;48.524;9.044;2023-04-07T05:16:15;97600.41;;;10.89;55.51
13387;BME280;6763;48.524;9.044;2023-04-07T05:18:40;97591.78;;;10.89;55.47
13387;BME280;6763;48.524;9.044;2023-04-07T05:21:05;97600.44;;;10.88;55.37
13387;BME280;6763;48.524;9.044;2023-04-07T05:23:31;97595.22;;;10.89;55.14
13387;BME280;6763;48.524;9.044;2023-04-07T05:25:56;97598.63;;;10.91;55.51
13387;BME280;6763;48.524;9.044;2023-04-07T05:28:21;97600.25;;;10.95;55.30
13387;BME280;6763;48.524;9.044;2023-04-07T05:30:47;97602.78;;;10.98;55.28
13387;BME280;6763;48.524;9.044;2023-04-07T05:33:12;97602.66;;;11.04;55.24
13387;BME280;6763;48.524;9.044;2023-04-07T05:35:37;97612.84;;;11.10;55.33
13387;BME280;6763;48.524;9.044;2023-04-07T05:38:03;97609.25;;;11.16;55.32
13387;BME280;6763;48.524;9.044;2023-04-07T05:40:28;97612.63;;;11.19;54.98
13387;BME280;6763;48.524;9.044;2023-04-07T05:42:55;97616.84;;;11.23;55.02
13387;BME280;6763;48.524;9.044;2023-04-07T05:45:20;97615.91;;;11.28;55.02
13387;BME280;6763;48.524;9.044;2023-04-07T05:47:46;97612.41;;;11.29;54.83
13387;BME280;6763;48.524;9.044;2023-04-07T05:50:14;97617.50;;;11.32;54.97
13387;BME280;6763;48.524;9.044;2023-04-07T05:52:39;97614.84;;;11.35;54.47
13387;BME280;6763;48.524;9.044;2023-04-07T05:55:05;97617.31;;;11.41;54.53
13387;BME280;6763;48.524;9.044;2023-04-07T05:57:30;97617.13;;;11.47;54.58
13387;BME280;6763;48.524;9.044;2023-04-07T05:59:57;97610.94;;;11.54;54.60
13387;BME280;6763;48.524;9.044;2023-04-07T06:02:22;97610.69;;;11.63;54.23
13387;BME280;6763;48.524;9.044;2023-04-07T06:04:48;97616.56;;;11.71;54.40
13387;BME280;6763;48.524;9.044;2023-04-07T06:07:13;97612.06;;;11.77;53.75
13387;BME280;6763;48.524;9.044;2023-04-07T06:09:39;97598.94;;;11.83;53.46
13387;BME280;6763;48.524;9.044;2023-04-07T06:12:04;97600.44;;;11.92;53.39
13387;BME280;6763;48.524;9.044;2023-04-07T06:14:31;97602.88;;;11.98;53.32
13387;BME280;6763;48.524;9.044;2023-04-07T06:16:56;97596.63;;;12.05;53.26
13387;BME280;6763;48.524;9.044;2023-04-07T06:19:21;97599.88;;;12.12;53.61
13387;BME280;6763;48.524;9.044;2023-04-07T06:21:47;97597.06;;;12.19;53.65
13387;BME280;6763;48.524;9.044;2023-04-07T06:24:12;97592.50;;;12.29;53.48
13387;BME280;6763;48.524;9.044;2023-04-07T06:26:38;97593.94;;;12.37;53.06
13387;BME280;6763;48.524;9.044;2023-04-07T06:29:04;97594.63;;;12.44;53.12
13387;BME280;6763;48.524;9.044;2023-04-07T06:31:30;97592.69;;;12.51;52.84
13387;BME280;6763;48.524;9.044;2023-04-07T06:33:55;97590.81;;;12.56;52.68
13387;BME280;6763;48.524;9.044;2023-04-07T06:36:21;97597.59;;;12.61;52.72
13387;BME280;6763;48.524;9.044;2023-04-07T06:38:47;97600.06;;;12.66;52.87
13387;BME280;6763;48.524;9.044;2023-04-07T06:41:13;97606.78;;;12.71;52.96
13387;BME280;6763;48.524;9.044;2023-04-07T06:43:42;97603.97;;;12.79;52.54
13387;BME280;6763;48.524;9.044;2023-04-07T06:46:07;97602.81;;;12.89;52.26
13387;BME280;6763;48.524;9.044;2023-04-07T06:48:33;97603.38;;;12.98;52.10
13387;BME280;6763;48.524;9.044;2023-04-07T06:50:58;97604.03;;;13.07;52.14
13387;BME280;6763;48.524;9.044;2023-04-07T06:53:23;97606.22;;;13.19;51.72
13387;BME280;6763;48.524;9.044;2023-04-07T06:55:49;97611.13;;;13.28;51.43
13387;BME280;6763;48.524;9.044;2023-04-07T06:58:14;97608.22;;;13.37;50.85
13387;BME280;6763;48.524;9.044;2023-04-07T07:00:39;97608.78;;;13.46;50.83
13387;BME280;6763;48.524;9.044;2023-04-07T07:03:05;97606.78;;;13.54;50.30
13387;BME280;6763;48.524;9.044;2023-04-07T07:05:30;97610.03;;;13.61;50.26
13387;BME280;6763;48.524;9.044;2023-04-07T07:07:56;97605.56;;;13.64;50.22
13387;BME280;6763;48.524;9.044;2023-04-07T07:10:21;97605.53;;;13.66;49.81
13387;BME280;6763;48.524;9.044;2023-04-07T07:12:49;97607.19;;;13.67;49.62
13387;BME280;6763;48.524;9.044;2023-04-07T07:15:15;97603.56;;;13.73;49.79
13387;BME280;6763;48.524;9.044;2023-04-07T07:17:40;97606.72;;;13.82;49.83
13387;BME280;6763;48.524;9.044;2023-04-07T07:20:06;97598.53;;;13.93;49.13
13387;BME280;6763;48.524;9.044;2023-04-07T07:22:32;97605.22;;;14.00;49.24
13387;BME280;6763;48.524;9.044;2023-04-07T07:24:57;97604.06;;;14.08;48.91
13387;BME280;6763;48.524;9.044;2023-04-07T07:27:22;97606.38;;;14.16;48.73
13387;BME280;6763;48.524;9.044;2023-04-07T07:29:47;97604.34;;;14.24;48.75
13387;BME280;6763;48.524;9.044;2023-04-07T07:32:13;97595.59;;;14.26;48.14
13387;BME280;6763;48.524;9.044;2023-04-07T07:34:38;97602.56;;;14.24;47.29
13387;BME280;6763;48.524;9.044;2023-04-07T07:37:03;97600.94;;;14.22;47.36
13387;BME280;6763;48.524;9.044;2023-04-07T07:39:29;97601.69;;;14.25;47.06
13387;BME280;6763;48.524;9.044;2023-04-07T07:41:54;97601.25;;;14.38;47.43
13387;BME280;6763;48.524;9.044;2023-04-07T07:44:20;97593.81;;;14.52;46.69
13387;BME280;6763;48.524;9.044;2023-04-07T07:46:47;97596.69;;;14.67;47.01
13387;BME280;6763;48.524;9.044;2023-04-07T07:49:12;97601.13;;;14.87;46.54
13387;BME280;6763;48.524;9.044;2023-04-07T07:51:38;97593.56;;;15.03;45.66
13387;BME280;6763;48.524;9.044;2023-04-07T07:54:03;97603.13;;;15.24;45.58
13387;BME280;6763;48.524;9.044;2023-04-07T07:56:28;97595.25;;;15.47;44.42
13387;BME280;6763;48.524;9.044;2023-04-07T07:58:53;97591.88;;;15.65;43.89
13387;BME280;6763;48.524;9.044;2023-04-07T08:01:19;97591.97;;;15.84;43.69
13387;BME280;6763;48.524;9.044;2023-04-07T08:03:46;97592.81;;;16.04;43.03
13387;BME280;6763;48.524;9.044;2023-04-07T08:06:11;97595.59;;;16.20;42.08
13387;BME280;6763;48.524;9.044;2023-04-07T08:08:37;97598.09;;;16.23;41.04
13387;BME280;6763;48.524;9.044;2023-04-07T08:11:02;97594.50;;;16.26;41.38
13387;BME280;6763;48.524;9.044;2023-04-07T08:13:28;97592.38;;;16.34;41.32
13387;BME280;6763;48.524;9.044;2023-04-07T08:15:53;97602.91;;;16.51;41.14
13387;BME280;6763;48.524;9.044;2023-04-07T08:18:18;97600.50;;;16.66;40.42
13387;BME280;6763;48.524;9.044;2023-04-07T08:20:45;97606.94;;;16.78;40.17
13387;BME280;6763;48.524;9.044;2023-04-07T08:23:11;97602.88;;;16.90;39.85
13387;BME280;6763;48.524;9.044;2023-04-07T08:25:36;97603.91;;;17.04;39.60
13387;BME280;6763;48.524;9.044;2023-04-07T08:28:04;97603.00;;;17.24;39.22
13387;BME280;6763;48.524;9.044;2023-04-07T08:30:30;97592.63;;;17.40;37.84
13387;BME280;6763;48.524;9.044;2023-04-07T08:32:55;97599.41;;;17.44;37.40
13387;BME280;6763;48.524;9.044;2023-04-07T08:35:20;97597.00;;;17.39;37.55
13387;BME280;6763;48.524;9.044;2023-04-07T08:37:46;97598.78;;;17.38;37.25
13387;BME280;6763;48.524;9.044;2023-04-07T08:40:13;97596.09;;;17.40;37.17
13387;BME280;6763;48.524;9.044;2023-04-07T08:42:40;97594.03;;;17.47;37.13
13387;BME280;6763;48.524;9.044;2023-04-07T08:45:08;97598.91;;;17.54;36.84
13387;BME280;6763;48.524;9.044;2023-04-07T08:47:35;97597.84;;;17.58;36.92
13387;BME280;6763;48.524;9.044;2023-04-07T08:50:06;97591.91;;;17.72;37.06
13387;BME280;6763;48.524;9.044;2023-04-07T08:52:49;97590.22;;;17.88;36.42
13387;BME280;6763;48.524;9.044;2023-04-07T08:55:14;97591.03;;;18.06;36.28
13387;BME280;6763;48.524;9.044;2023-04-07T08:57:41;97590.63;;;18.13;35.43
13387;BME280;6763;48.524;9.044;2023-04-07T09:00:07;97590.94;;;18.24;35.34
13387;BME280;6763;48.524;9.044;2023-04-07T09:02:36;97592.31;;;18.48;35.07
13387;BME280;6763;48.524;9.044;2023-04-07T09:05:03;97590.50;;;18.82;34.43
13387;BME280;6763;48.524;9.044;2023-04-07T09:07:31;97588.78;;;19.12;33.82
13387;BME280;6763;48.524;9.044;2023-04-07T09:09:57;97581.28;;;19.37;33.16
13387;BME280;6763;48.524;9.044;2023-04-07T09:12:22;97585.66;;;19.52;32.89
13387;BME280;6763;48.524;9.044;2023-04-07T09:14:48;97591.00;;;19.80;32.79
13387;BME280;6763;48.524;9.044;2023-04-07T09:17:13;97584.56;;;20.00;31.89
13387;BME280;6763;48.524;9.044;2023-04-07T09:19:39;97590.22;;;20.22;31.76
13387;BME280;6763;48.524;9.044;2023-04-07T09:22:04;97580.88;;;20.47;30.95
13387;BME280;6763;48.524;9.044;2023-04-07T09:24:30;97581.13;;;20.70;30.98
13387;BME280;6763;48.524;9.044;2023-04-07T09:27:18;97581.31;;;20.95;30.30
13387;BME280;6763;48.524;9.044;2023-04-07T09:29:45;97582.75;;;21.28;30.07
13387;BME280;6763;48.524;9.044;2023-04-07T09:32:11;97580.19;;;21.53;29.37
13387;BME280;6763;48.524;9.044;2023-04-07T09:34:39;97585.34;;;21.81;29.30
13387;BME280;6763;48.524;9.044;2023-04-07T09:37:05;97587.19;;;22.18;28.59
13387;BME280;6763;48.524;9.044;2023-04-07T09:39:32;97573.38;;;22.53;27.55
13387;BME280;6763;48.524;9.044;2023-04-07T09:41:58;97575.16;;;22.77;27.14
13387;BME280;6763;48.524;9.044;2023-04-07T09:44:24;97574.06;;;23.41;26.78
13387;BME280;6763;48.524;9.044;2023-04-07T09:46:52;97566.06;;;24.24;25.54
13387;BME280;6763;48.524;9.044;2023-04-07T09:49:19;97568.09;;;25.09;24.96
13387;BME280;6763;48.524;9.044;2023-04-07T09:51:59;97564.75;;;25.81;23.74
13387;BME280;6763;48.524;9.044;2023-04-07T09:54:36;97574.16;;;26.47;23.22
13387;BME280;6763;48.524;9.044;2023-04-07T09:57:07;97558.66;;;27.13;22.53
13387;BME280;6763;48.524;9.044;2023-04-07T09:59:33;97556.50;;;27.47;21.86
13387;BME280;6763;48.524;9.044;2023-04-07T10:01:59;97558.75;;;27.51;21.11
13387;BME280;6763;48.524;9.044;2023-04-07T10:04:26;97552.72;;;27.68;20.89
13387;BME280;6763;48.524;9.044;2023-04-07T10:06:52;97554.41;;;28.08;20.93
13387;BME280;6763;48.524;9.044;2023-04-07T10:09:19;97559.09;;;28.43;20.41
13387;BME280;6763;48.524;9.044;2023-04-07T10:11:45;97557.09;;;28.91;20.10
13387;BME280;6763;48.524;9.044;2023-04-07T10:14:11;97559.03;;;28.99;19.09
13387;BME280;6763;48.524;9.044;2023-04-07T10:16:37;97546.28;;;29.20;19.00
13387;BME280;6763;48.524;9.044;2023-04-07T10:19:03;97545.38;;;28.84;17.72
13387;BME280;6763;48.524;9.044;2023-04-07T10:21:31;97544.31;;;28.02;18.72
13387;BME280;6763;48.524;9.044;2023-04-07T10:26:34;97549.50;;;27.65;19.87
13387;BME280;6763;48.524;9.044;2023-04-07T10:29:09;97544.84;;;28.15;19.36
13387;BME280;6763;48.524;9.044;2023-04-07T10:31:36;97539.16;;;28.47;19.53
13387;BME280;6763;48.524;9.044;2023-04-07T10:34:03;97550.09;;;28.90;19.00
13387;BME280;6763;48.524;9.044;2023-04-07T10:36:30;97554.22;;;28.75;18.11
13387;BME280;6763;48.524;9.044;2023-04-07T10:41:37;97551.47;;;27.44;19.51
13387;BME280;6763;48.524;9.044;2023-04-07T10:44:04;97553.81;;;26.88;20.13
13387;BME280;6763;48.524;9.044;2023-04-07T10:49:14;97550.84;;;25.89;20.84
13387;BME280;6763;48.524;9.044;2023-04-07T10:51:41;97556.50;;;25.32;21.39
13387;BME280;6763;48.524;9.044;2023-04-07T10:54:18;97557.19;;;24.58;21.83
13387;BME280;6763;48.524;9.044;2023-04-07T10:59:31;97563.06;;;23.59;23.21
13387;BME280;6763;48.524;9.044;2023-04-07T11:04:44;97578.88;;;22.50;24.42
13387;BME280;6763;48.524;9.044;2023-04-07T11:07:12;97574.66;;;21.97;25.67
13387;BME280;6763;48.524;9.044;2023-04-07T11:09:39;97590.09;;;21.23;26.86
13387;BME280;6763;48.524;9.044;2023-04-07T11:12:05;97586.25;;;20.59;27.85
13387;BME280;6763;48.524;9.044;2023-04-07T11:14:31;97589.44;;;20.06;28.44
13387;BME280;6763;48.524;9.044;2023-04-07T11:16:58;97587.72;;;19.61;28.75
13387;BME280;6763;48.524;9.044;2023-04-07T11:19:25;97598.25;;;19.14;29.44
13387;BME280;6763;48.524;9.044;2023-04-07T11:22:13;97590.00;;;18.75;29.73
13387;BME280;6763;48.524;9.044;2023-04-07T11:24:39;97604.47;;;18.49;30.31
13387;BME280;6763;48.524;9.044;2023-04-07T11:27:09;97589.94;;;18.27;30.84
13387;BME280;6763;48.524;9.044;2023-04-07T11:29:36;97597.53;;;17.98;31.59
13387;BME280;6763;48.524;9.044;2023-04-07T11:32:03;97600.38;;;17.60;33.09
13387;BME280;6763;48.524;9.044;2023-04-07T11:34:29;97603.50;;;17.13;34.42
13387;BME280;6763;48.524;9.044;2023-04-07T11:36:55;97599.78;;;16.63;36.50
13387;BME280;6763;48.524;9.044;2023-04-07T11:39:24;97610.66;;;16.13;37.80
13387;BME280;6763;48.524;9.044;2023-04-07T11:41:52;97611.88;;;15.66;39.47
13387;BME280;6763;48.524;9.044;2023-04-07T11:44:18;97621.50;;;15.21;41.17
13387;BME280;6763;48.524;9.044;2023-04-07T11:46:57;97623.00;;;14.83;43.32
13387;BME280;6763;48.524;9.044;2023-04-07T11:49:24;97636.16;;;14.57;44.21
13387;BME280;6763;48.524;9.044;2023-04-07T11:54:22;97640.03;;;14.20;46.55
13387;BME280;6763;48.524;9.044;2023-04-07T11:56:47;97646.06;;;13.98;47.79
13387;BME280;6763;48.524;9.044;2023-04-07T11:59:23;97651.19;;;13.75;48.67
13387;BME280;6763;48.524;9.044;2023-04-07T12:01:50;97661.13;;;13.62;49.48
13387;BME280;6763;48.524;9.044;2023-04-07T12:04:17;97664.91;;;13.53;50.88
13387;BME280;6763;48.524;9.044;2023-04-07T12:06:44;97655.44;;;13.51;50.70
13387;BME280;6763;48.524;9.044;2023-04-07T12:09:26;97663.28;;;13.49;51.12
13387;BME280;6763;48.524;9.044;2023-04-07T12:11:53;97667.69;;;13.47;51.79
13387;BME280;6763;48.524;9.044;2023-04-07T12:14:18;97659.94;;;13.46;52.21
13387;BME280;6763;48.524;9.044;2023-04-07T12:16:44;97658.31;;;13.42;51.90
13387;BME280;6763;48.524;9.044;2023-04-07T12:19:09;97666.91;;;13.44;52.68
13387;BME280;6763;48.524;9.044;2023-04-07T12:21:35;97657.34;;;13.46;52.58
13387;BME280;6763;48.524;9.044;2023-04-07T12:24:00;97666.91;;;13.44;52.88
13387;BME280;6763;48.524;9.044;2023-04-07T12:26:26;97666.19;;;13.40;52.63
13387;BME280;6763;48.524;9.044;2023-04-07T12:28:51;97658.31;;;13.42;52.77
13387;BME280;6763;48.524;9.044;2023-04-07T12:31:17;97661.72;;;13.44;53.14
13387;BME280;6763;48.524;9.044;2023-04-07T12:33:42;97665.03;;;13.49;52.88
13387;BME280;6763;48.524;9.044;2023-04-07T12:36:07;97663.38;;;13.46;51.86
13387;BME280;6763;48.524;9.044;2023-04-07T12:38:33;97666.91;;;13.44;51.79
13387;BME280;6763;48.524;9.044;2023-04-07T12:40:58;97665.88;;;13.49;52.42
13387;BME280;6763;48.524;9.044;2023-04-07T12:43:28;97664.22;;;13.47;51.59
13387;BME280;6763;48.524;9.044;2023-04-07T12:45:54;97655.47;;;13.49;51.63
13387;BME280;6763;48.524;9.044;2023-04-07T12:48:20;97651.03;;;13.53;51.55
13387;BME280;6763;48.524;9.044;2023-04-07T12:50:45;97642.22;;;13.57;52.27
13387;BME280;6763;48.524;9.044;2023-04-07T12:53:10;97639.38;;;13.64;51.60
13387;BME280;6763;48.524;9.044;2023-04-07T12:55:36;97641.75;;;13.72;51.63
13387;BME280;6763;48.524;9.044;2023-04-07T12:58:01;97642.53;;;13.74;51.43
13387;BME280;6763;48.524;9.044;2023-04-07T13:00:27;97636.28;;;13.80;51.68
13387;BME280;6763;48.524;9.044;2023-04-07T13:02:53;97639.50;;;13.86;51.57
13387;BME280;6763;48.524;9.044;2023-04-07T13:05:18;97634.53;;;14.05;51.42
13387;BME280;6763;48.524;9.044;2023-04-07T13:07:43;97641.69;;;14.23;50.66
13387;BME280;6763;48.524;9.044;2023-04-07T13:10:09;97628.41;;;14.30;50.20
13387;BME280;6763;48.524;9.044;2023-04-07T13:12:35;97637.78;;;14.36;49.83
13387;BME280;6763;48.524;9.044;2023-04-07T13:15:00;97633.75;;;14.51;49.66
13387;BME280;6763;48.524;9.044;2023-04-07T13:17:26;97638.06;;;14.75;49.44
13387;BME280;6763;48.524;9.044;2023-04-07T13:19:53;97640.66;;;14.98;48.66
13387;BME280;6763;48.524;9.044;2023-04-07T13:22:18;97639.88;;;15.18;47.88
13387;BME280;6763;48.524;9.044;2023-04-07T13:24:43;97645.84;;;15.43;46.67
13387;BME280;6763;48.524;9.044;2023-04-07T13:27:09;97636.38;;;15.62;46.27
13387;BME280;6763;48.524;9.044;2023-04-07T13:29:35;97645.19;;;15.80;45.59